sensor_id;sensor_type;location;lat;lon;timestamp;pressure;altitude;pressure_sealevel;temperature;humidity
33845;BME280;20145;43.118;25.694;2023-02-22T00:00:40;99313.34;;;13.08;47.72
33845;BME280;20145;43.118;25.694;2023-02-22T00:05:44;99312.44;;;13.08;46.76
33845;BME280;20145;43.118;25.694;2023-02-22T00:08:14;99304.00;;;13.01;47.00
33845;BME280;20145;43.118;25.694;2023-02-22T00:10:40;99303.16;;;12.99;48.27
33845;BME280;20145;43.118;25.694;2023-02-22T00:13:07;99311.84;;;12.98;47.17
33845;BME280;20145;43.118;25.694;2023-02-22T00:15:34;99305.09;;;12.91;47.12
33845;BME280;20145;43.118;25.694;2023-02-22T00:18:00;99304.16;;;12.93;47.91
33845;BME280;20145;43.118;25.694;2023-02-22T00:20:26;99318.00;;;12.92;48.57
33845;BME280;20145;43.118;25.694;2023-02-22T00:22:52;99304.41;;;12.83;47.83
33845;BME280;20145;43.118;25.694;2023-02-22T00:25:20;99319.69;;;12.93;48.01
33845;BME280;20145;43.118;25.694;2023-02-22T00:27:47;99313.75;;;12.90;48.27
33845;BME280;20145;43.118;25.694;2023-02-22T00:30:20;99319.78;;;12.90;48.51
33845;BME280;20145;43.118;25.694;2023-02-22T00:32:47;99313.97;;;12.81;48.01
33845;BME280;20145;43.118;25.694;2023-02-22T00:35:14;99312.25;;;12.80;48.87
33845;BME280;20145;43.118;25.694;2023-02-22T00:37:40;99303.69;;;12.78;48.41
33845;BME280;20145;43.118;25.694;2023-02-22T00:40:09;99307.16;;;12.77;49.39
33845;BME280;20145;43.118;25.694;2023-02-22T00:42:36;99290.78;;;12.75;48.97
33845;BME280;20145;43.118;25.694;2023-02-22T00:45:03;99284.06;;;12.67;49.39
33845;BME280;20145;43.118;25.694;2023-02-22T00:47:30;99300.38;;;12.71;49.18
33845;BME280;20145;43.118;25.694;2023-02-22T00:49:56;99296.25;;;12.62;49.79
33845;BME280;20145;43.118;25.694;2023-02-22T00:52:21;99300.75;;;12.54;48.59
33845;BME280;20145;43.118;25.694;2023-02-22T00:54:47;99298.22;;;12.53;50.18
33845;BME280;20145;43.118;25.694;2023-02-22T00:57:12;99298.13;;;12.56;49.19
33845;BME280;20145;43.118;25.694;2023-02-22T00:59:38;99300.59;;;12.60;49.71
33845;BME280;20145;43.118;25.694;2023-02-22T01:02:04;99286.97;;;12.54;49.83
33845;BME280;20145;43.118;25.694;2023-02-22T01:04:29;99301.44;;;12.61;49.54
33845;BME280;20145;43.118;25.694;2023-02-22T01:06:55;99288.63;;;12.56;48.73
33845;BME280;20145;43.118;25.694;2023-02-22T01:09:21;99302.97;;;12.71;49.38
33845;BME280;20145;43.118;25.694;2023-02-22T01:11:52;99301.25;;;12.70;49.02
33845;BME280;20145;43.118;25.694;2023-02-22T01:14:20;99302.97;;;12.71;49.71
33845;BME280;20145;43.118;25.694;2023-02-22T01:16:46;99295.34;;;12.65;49.21
33845;BME280;20145;43.118;25.694;2023-02-22T01:19:12;99295.25;;;12.68;48.48
33845;BME280;20145;43.118;25.694;2023-02-22T01:21:39;99297.09;;;12.63;48.99
33845;BME280;20145;43.118;25.694;2023-02-22T01:24:05;99295.16;;;12.72;47.55
33845;BME280;20145;43.118;25.694;2023-02-22T01:26:30;99290.91;;;12.70;48.83
33845;BME280;20145;43.118;25.694;2023-02-22T01:28:56;99294.19;;;12.77;47.43
33845;BME280;20145;43.118;25.694;2023-02-22T01:31:21;99287.41;;;12.72;48.93
33845;BME280;20145;43.118;25.694;2023-02-22T01:33:49;99292.53;;;12.74;48.60
33845;BME280;20145;43.118;25.694;2023-02-22T01:36:16;99284.81;;;12.72;48.38
33845;BME280;20145;43.118;25.694;2023-02-22T01:38:43;99291.66;;;12.75;47.53
33845;BME280;20145;43.118;25.694;2023-02-22T01:41:10;99289.94;;;12.74;47.74
33845;BME280;20145;43.118;25.694;2023-02-22T01:43:36;99293.38;;;12.75;48.33
33845;BME280;20145;43.118;25.694;2023-02-22T01:46:19;99290.91;;;12.70;48.69
33845;BME280;20145;43.118;25.694;2023-02-22T01:49:00;99292.47;;;12.77;48.51
33845;BME280;20145;43.118;25.694;2023-02-22T01:51:31;99296.91;;;12.72;48.11
33845;BME280;20145;43.118;25.694;2023-02-22T01:54:17;99295.16;;;12.72;48.38
33845;BME280;20145;43.118;25.694;2023-02-22T01:56:49;99298.56;;;12.75;48.41
33845;BME280;20145;43.118;25.694;2023-02-22T01:59:17;99296.91;;;12.72;48.42
33845;BME280;20145;43.118;25.694;2023-02-22T02:01:43;99289.84;;;12.79;47.44
33845;BME280;20145;43.118;25.694;2023-02-22T02:04:11;99300.06;;;12.85;47.90
33845;BME280;20145;43.118;25.694;2023-02-22T02:06:40;99286.28;;;12.83;47.42
33845;BME280;20145;43.118;25.694;2023-02-22T02:09:58;99282.06;;;12.79;47.74
33845;BME280;20145;43.118;25.694;2023-02-22T02:12:07;99289.78;;;12.80;48.68
33845;BME280;20145;43.118;25.694;2023-02-22T02:14:33;99281.78;;;12.91;48.57
33845;BME280;20145;43.118;25.694;2023-02-22T02:17:06;99280.09;;;12.90;46.76
33845;BME280;20145;43.118;25.694;2023-02-22T02:19:48;99284.19;;;12.99;46.83
33845;BME280;20145;43.118;25.694;2023-02-22T02:32:54;99288.44;;;13.01;47.05
33845;BME280;20145;43.118;25.694;2023-02-22T02:43:46;99300.63;;;12.98;47.09
33845;BME280;20145;43.118;25.694;2023-02-22T02:46:24;99292.88;;;12.98;47.45
33845;BME280;20145;43.118;25.694;2023-02-22T02:48:58;99287.72;;;12.96;48.57
33845;BME280;20145;43.118;25.694;2023-02-22T02:51:28;99287.63;;;12.99;48.18
33845;BME280;20145;43.118;25.694;2023-02-22T02:53:56;99284.28;;;12.95;47.75
33845;BME280;20145;43.118;25.694;2023-02-22T02:56:22;99286.97;;;12.91;47.76
33845;BME280;20145;43.118;25.694;2023-02-22T02:58:50;99297.97;;;13.01;47.51
33845;BME280;20145;43.118;25.694;2023-02-22T03:04:28;99296.13;;;13.06;47.33
33845;BME280;20145;43.118;25.694;2023-02-22T03:15:22;99299.72;;;12.99;47.43
33845;BME280;20145;43.118;25.694;2023-02-22T03:18:02;99297.16;;;12.99;48.22
33845;BME280;20145;43.118;25.694;2023-02-22T03:25:39;99304.69;;;13.08;47.95
33845;BME280;20145;43.118;25.694;2023-02-22T03:28:09;99301.25;;;13.07;46.94
33845;BME280;20145;43.118;25.694;2023-02-22T03:33:18;99295.69;;;12.87;47.25
33845;BME280;20145;43.118;25.694;2023-02-22T03:35:51;99299.03;;;12.92;47.85
33845;BME280;20145;43.118;25.694;2023-02-22T03:38:23;99298.44;;;12.81;48.41
33845;BME280;20145;43.118;25.694;2023-02-22T03:40:53;99286.41;;;12.78;48.73
33845;BME280;20145;43.118;25.694;2023-02-22T03:43:45;99294.97;;;12.80;48.86
33845;BME280;20145;43.118;25.694;2023-02-22T03:46:13;99299.38;;;12.77;47.96
33845;BME280;20145;43.118;25.694;2023-02-22T03:51:35;99288.19;;;12.75;49.46
33845;BME280;20145;43.118;25.694;2023-02-22T03:54:02;99298.63;;;12.71;48.83
33845;BME280;20145;43.118;25.694;2023-02-22T03:56:36;99303.00;;;12.69;50.26
33845;BME280;20145;43.118;25.694;2023-02-22T03:59:05;99296.22;;;12.64;49.21
33845;BME280;20145;43.118;25.694;2023-02-22T04:01:32;99293.66;;;12.64;49.29
33845;BME280;20145;43.118;25.694;2023-02-22T04:03:57;99301.41;;;12.64;49.14
33845;BME280;20145;43.118;25.694;2023-02-22T04:06:24;99294.50;;;12.64;49.63
33845;BME280;20145;43.118;25.694;2023-02-22T04:08:50;99295.16;;;12.72;49.00
33845;BME280;20145;43.118;25.694;2023-02-22T04:11:15;99299.66;;;12.64;50.38
33845;BME280;20145;43.118;25.694;2023-02-22T04:13:41;99302.09;;;12.72;49.30
33845;BME280;20145;43.118;25.694;2023-02-22T04:16:07;99294.34;;;12.70;49.35
33845;BME280;20145;43.118;25.694;2023-02-22T04:18:32;99305.38;;;12.79;48.84
33845;BME280;20145;43.118;25.694;2023-02-22T04:20:58;99308.88;;;12.76;49.17
33845;BME280;20145;43.118;25.694;2023-02-22T04:23:23;99308.97;;;12.73;48.99
33845;BME280;20145;43.118;25.694;2023-02-22T04:25:49;99307.28;;;12.70;50.39
33845;BME280;20145;43.118;25.694;2023-02-22T04:28:14;99292.06;;;12.57;50.60
33845;BME280;20145;43.118;25.694;2023-02-22T04:30:40;99313.53;;;12.60;49.76
33845;BME280;20145;43.118;25.694;2023-02-22T04:33:05;99311.06;;;12.56;50.29
33845;BME280;20145;43.118;25.694;2023-02-22T04:35:31;99307.66;;;12.54;51.53
33845;BME280;20145;43.118;25.694;2023-02-22T04:37:56;99317.16;;;12.53;51.64
33845;BME280;20145;43.118;25.694;2023-02-22T04:40:22;99312.00;;;12.53;50.50
33845;BME280;20145;43.118;25.694;2023-02-22T04:42:48;99312.78;;;12.57;51.89
33845;BME280;20145;43.118;25.694;2023-02-22T04:45:14;99315.50;;;12.49;51.10
33845;BME280;20145;43.118;25.694;2023-02-22T04:47:39;99314.69;;;12.47;52.10
33845;BME280;20145;43.118;25.694;2023-02-22T04:50:06;99313.09;;;12.41;51.97
33845;BME280;20145;43.118;25.694;2023-02-22T04:52:32;99325.22;;;12.39;51.63
33845;BME280;20145;43.118;25.694;2023-02-22T04:54:58;99325.94;;;12.46;51.08
33845;BME280;20145;43.118;25.694;2023-02-22T04:57:23;99328.50;;;12.47;51.13
33845;BME280;20145;43.118;25.694;2023-02-22T04:59:49;99337.13;;;12.48;51.66
33845;BME280;20145;43.118;25.694;2023-02-22T05:02:16;99326.97;;;12.37;51.75
33845;BME280;20145;43.118;25.694;2023-02-22T05:04:41;99344.38;;;12.31;52.02
33845;BME280;20145;43.118;25.694;2023-02-22T05:07:07;99337.41;;;12.34;51.89
33845;BME280;20145;43.118;25.694;2023-02-22T05:09:33;99339.13;;;12.34;51.79
33845;BME280;20145;43.118;25.694;2023-02-22T05:11:58;99320.19;;;12.32;51.80
33845;BME280;20145;43.118;25.694;2023-02-22T05:14:24;99329.44;;;12.43;52.85
33845;BME280;20145;43.118;25.694;2023-02-22T05:16:56;99334.59;;;12.45;51.73
33845;BME280;20145;43.118;25.694;2023-02-22T05:19:23;99344.13;;;12.43;52.52
33845;BME280;20145;43.118;25.694;2023-02-22T05:21:49;99329.56;;;12.39;52.61
33845;BME280;20145;43.118;25.694;2023-02-22T05:24:14;99328.53;;;12.46;52.35
33845;BME280;20145;43.118;25.694;2023-02-22T05:26:43;99336.97;;;12.54;51.68
33845;BME280;20145;43.118;25.694;2023-02-22T05:29:09;99339.50;;;12.57;51.86
33845;BME280;20145;43.118;25.694;2023-02-22T05:31:34;99323.19;;;12.54;52.70
33845;BME280;20145;43.118;25.694;2023-02-22T05:34:00;99348.03;;;12.62;52.31
33845;BME280;20145;43.118;25.694;2023-02-22T05:36:25;99342.81;;;12.64;51.58
33845;BME280;20145;43.118;25.694;2023-02-22T05:38:52;99345.34;;;12.67;51.23
33845;BME280;20145;43.118;25.694;2023-02-22T05:41:18;99360.03;;;12.65;51.54
33845;BME280;20145;43.118;25.694;2023-02-22T05:43:44;99352.38;;;12.60;52.09
33845;BME280;20145;43.118;25.694;2023-02-22T05:46:10;99358.28;;;12.67;51.70
33845;BME280;20145;43.118;25.694;2023-02-22T05:48:35;99363.38;;;12.70;52.16
33845;BME280;20145;43.118;25.694;2023-02-22T05:51:01;99360.75;;;12.71;51.82
33845;BME280;20145;43.118;25.694;2023-02-22T05:53:28;99367.38;;;12.85;51.13
33845;BME280;20145;43.118;25.694;2023-02-22T05:55:54;99372.53;;;12.86;50.89
33845;BME280;20145;43.118;25.694;2023-02-22T05:58:20;99373.41;;;12.85;51.38
33845;BME280;20145;43.118;25.694;2023-02-22T06:00:46;99367.16;;;12.94;49.76
33845;BME280;20145;43.118;25.694;2023-02-22T06:03:14;99378.34;;;12.96;51.26
33845;BME280;20145;43.118;25.694;2023-02-22T06:05:40;99373.91;;;13.03;50.29
33845;BME280;20145;43.118;25.694;2023-02-22T06:08:06;99381.34;;;13.16;50.75
33845;BME280;20145;43.118;25.694;2023-02-22T06:10:32;99382.00;;;13.26;50.53
33845;BME280;20145;43.118;25.694;2023-02-22T06:12:59;99388.75;;;13.33;49.05
33845;BME280;20145;43.118;25.694;2023-02-22T06:15:26;99396.31;;;13.43;48.98
33845;BME280;20145;43.118;25.694;2023-02-22T06:17:53;99394.38;;;13.51;48.34
33845;BME280;20145;43.118;25.694;2023-02-22T06:20:21;99379.53;;;13.57;48.89
33845;BME280;20145;43.118;25.694;2023-02-22T06:22:48;99395.75;;;13.66;48.51
33845;BME280;20145;43.118;25.694;2023-02-22T06:25:16;99393.03;;;13.72;48.60
33845;BME280;20145;43.118;25.694;2023-02-22T06:27:42;99396.31;;;13.77;48.57
33845;BME280;20145;43.118;25.694;2023-02-22T06:30:09;99396.13;;;13.84;48.53
33845;BME280;20145;43.118;25.694;2023-02-22T06:32:35;99393.28;;;13.95;46.66
33845;BME280;20145;43.118;25.694;2023-02-22T06:35:00;99388.84;;;13.99;48.28
33845;BME280;20145;43.118;25.694;2023-02-22T06:37:26;99393.91;;;14.05;48.02
33845;BME280;20145;43.118;25.694;2023-02-22T06:39:51;99402.56;;;14.04;48.10
33845;BME280;20145;43.118;25.694;2023-02-22T06:42:17;99404.88;;;14.15;48.03
33845;BME280;20145;43.118;25.694;2023-02-22T06:44:42;99403.84;;;14.20;46.37
33845;BME280;20145;43.118;25.694;2023-02-22T06:47:08;99396.03;;;14.22;46.32
33845;BME280;20145;43.118;25.694;2023-02-22T06:49:34;99391.50;;;14.30;46.28
33845;BME280;20145;43.118;25.694;2023-02-22T06:51:59;99397.34;;;14.37;46.32
33845;BME280;20145;43.118;25.694;2023-02-22T06:54:25;99389.16;;;14.52;45.63
33845;BME280;20145;43.118;25.694;2023-02-22T06:56:51;99390.47;;;14.67;46.28
33845;BME280;20145;43.118;25.694;2023-02-22T06:59:17;99402.53;;;14.68;45.65
33845;BME280;20145;43.118;25.694;2023-02-22T07:01:43;99396.41;;;14.70;45.86
33845;BME280;20145;43.118;25.694;2023-02-22T07:04:09;99396.91;;;14.83;46.29
33845;BME280;20145;43.118;25.694;2023-02-22T07:06:34;99406.38;;;14.86;45.76
33845;BME280;20145;43.118;25.694;2023-02-22T07:09:01;99399.19;;;14.94;47.15
33845;BME280;20145;43.118;25.694;2023-02-22T07:11:26;99398.16;;;15.00;46.62
33845;BME280;20145;43.118;25.694;2023-02-22T07:13:52;99396.28;;;15.05;45.45
33845;BME280;20145;43.118;25.694;2023-02-22T07:16:19;99391.97;;;15.04;46.51
33845;BME280;20145;43.118;25.694;2023-02-22T07:18:45;99393.53;;;15.09;46.72
33845;BME280;20145;43.118;25.694;2023-02-22T07:21:10;99391.03;;;15.06;46.43
33845;BME280;20145;43.118;25.694;2023-02-22T07:23:37;99396.34;;;15.02;47.44
33845;BME280;20145;43.118;25.694;2023-02-22T07:26:03;99394.78;;;14.96;47.61
33845;BME280;20145;43.118;25.694;2023-02-22T07:28:29;99399.97;;;14.96;46.44
33845;BME280;20145;43.118;25.694;2023-02-22T07:30:55;99405.16;;;14.98;46.44
33845;BME280;20145;43.118;25.694;2023-02-22T07:33:21;99398.28;;;14.95;47.09
33845;BME280;20145;43.118;25.694;2023-02-22T07:35:49;99400.13;;;14.91;47.03
33845;BME280;20145;43.118;25.694;2023-02-22T07:38:17;99398.19;;;14.98;46.60
33845;BME280;20145;43.118;25.694;2023-02-22T07:40:43;99392.59;;;14.82;47.25
33845;BME280;20145;43.118;25.694;2023-02-22T07:43:23;99392.56;;;14.84;48.42
33845;BME280;20145;43.118;25.694;2023-02-22T07:45:51;99396.81;;;14.86;46.45
33845;BME280;20145;43.118;25.694;2023-02-22T07:48:19;99395.59;;;14.98;46.81
33845;BME280;20145;43.118;25.694;2023-02-22T07:50:45;99394.75;;;14.98;48.46
33845;BME280;20145;43.118;25.694;2023-02-22T07:53:17;99386.00;;;15.00;48.16
33845;BME280;20145;43.118;25.694;2023-02-22T07:55:43;99383.81;;;15.16;47.67
33845;BME280;20145;43.118;25.694;2023-02-22T07:58:12;99403.34;;;15.28;47.09
33845;BME280;20145;43.118;25.694;2023-02-22T08:00:39;99394.75;;;15.26;46.53
33845;BME280;20145;43.118;25.694;2023-02-22T08:03:07;99400.53;;;15.35;47.35
33845;BME280;20145;43.118;25.694;2023-02-22T08:05:35;99403.19;;;15.32;46.03
33845;BME280;20145;43.118;25.694;2023-02-22T08:08:02;99411.00;;;15.32;46.73
33845;BME280;20145;43.118;25.694;2023-02-22T08:10:28;99388.75;;;15.24;46.62
33845;BME280;20145;43.118;25.694;2023-02-22T08:12:55;99392.66;;;15.37;47.78
33845;BME280;20145;43.118;25.694;2023-02-22T08:15:29;99396.09;;;15.37;46.31
33845;BME280;20145;43.118;25.694;2023-02-22T08:17:56;99406.66;;;15.33;47.19
33845;BME280;20145;43.118;25.694;2023-02-22T08:20:23;99403.25;;;15.31;48.21
33845;BME280;20145;43.118;25.694;2023-02-22T08:22:49;99397.03;;;15.35;47.94
33845;BME280;20145;43.118;25.694;2023-02-22T08:25:16;99397.97;;;15.34;46.86
33845;BME280;20145;43.118;25.694;2023-02-22T08:27:42;99394.72;;;15.27;47.27
33845;BME280;20145;43.118;25.694;2023-02-22T08:30:16;99401.03;;;15.18;48.30
33845;BME280;20145;43.118;25.694;2023-02-22T08:32:42;99397.56;;;15.18;48.72
33845;BME280;20145;43.118;25.694;2023-02-22T08:37:56;99387.09;;;15.21;48.66
33845;BME280;20145;43.118;25.694;2023-02-22T08:40:24;99390.47;;;15.25;48.51
33845;BME280;20145;43.118;25.694;2023-02-22T08:42:50;99389.97;;;15.40;47.65
33845;BME280;20145;43.118;25.694;2023-02-22T08:45:17;99376.25;;;15.35;48.53
33845;BME280;20145;43.118;25.694;2023-02-22T08:47:42;99396.31;;;15.31;47.45
33845;BME280;20145;43.118;25.694;2023-02-22T08:50:10;99392.13;;;15.27;46.85
33845;BME280;20145;43.118;25.694;2023-02-22T08:52:39;99375.59;;;15.28;47.17
33845;BME280;20145;43.118;25.694;2023-02-22T08:55:05;99387.59;;;15.32;47.49
33845;BME280;20145;43.118;25.694;2023-02-22T08:57:31;99374.56;;;15.34;47.37
33845;BME280;20145;43.118;25.694;2023-02-22T08:59:56;99379.63;;;15.38;47.46
33845;BME280;20145;43.118;25.694;2023-02-22T09:02:22;99372.44;;;15.47;48.15
33845;BME280;20145;43.118;25.694;2023-02-22T09:04:49;99388.34;;;15.62;48.40
33845;BME280;20145;43.118;25.694;2023-02-22T09:07:15;99354.78;;;15.30;46.92
33845;BME280;20145;43.118;25.694;2023-02-22T09:09:42;99379.31;;;15.48;46.82
33845;BME280;20145;43.118;25.694;2023-02-22T09:12:08;99382.72;;;15.50;46.96
33845;BME280;20145;43.118;25.694;2023-02-22T09:14:33;99378.41;;;15.49;48.17
33845;BME280;20145;43.118;25.694;2023-02-22T09:16:59;99381.56;;;15.58;47.66
33845;BME280;20145;43.118;25.694;2023-02-22T09:19:25;99395.06;;;15.71;47.37
33845;BME280;20145;43.118;25.694;2023-02-22T09:21:55;99375.94;;;15.72;47.66
33845;BME280;20145;43.118;25.694;2023-02-22T09:24:22;99388.22;;;15.94;46.75
33845;BME280;20145;43.118;25.694;2023-02-22T09:26:48;99385.22;;;16.04;45.78
33845;BME280;20145;43.118;25.694;2023-02-22T09:29:23;99376.56;;;15.79;46.90
33845;BME280;20145;43.118;25.694;2023-02-22T09:31:51;99370.16;;;15.89;46.21
33845;BME280;20145;43.118;25.694;2023-02-22T09:34:18;99381.38;;;15.91;46.52
33845;BME280;20145;43.118;25.694;2023-02-22T09:36:46;99379.28;;;16.01;47.03
33845;BME280;20145;43.118;25.694;2023-02-22T09:39:13;99382.25;;;16.15;47.63
33845;BME280;20145;43.118;25.694;2023-02-22T09:42:02;99380.22;;;16.23;46.30
33845;BME280;20145;43.118;25.694;2023-02-22T09:44:51;99373.59;;;16.15;46.26
33845;BME280;20145;43.118;25.694;2023-02-22T09:47:22;99368.50;;;16.12;46.25
33845;BME280;20145;43.118;25.694;2023-02-22T09:50:01;99373.34;;;16.22;46.07
33845;BME280;20145;43.118;25.694;2023-02-22T09:52:38;99376.44;;;16.32;45.33
33845;BME280;20145;43.118;25.694;2023-02-22T09:55:45;99374.59;;;16.36;45.02
33845;BME280;20145;43.118;25.694;2023-02-22T09:58:11;99369.16;;;16.42;46.03
33845;BME280;20145;43.118;25.694;2023-02-22T10:00:38;99357.78;;;16.44;45.46
33845;BME280;20145;43.118;25.694;2023-02-22T10:03:23;99369.22;;;16.64;45.41
33845;BME280;20145;43.118;25.694;2023-02-22T10:06:31;99365.41;;;16.72;44.40
33845;BME280;20145;43.118;25.694;2023-02-22T10:08:39;99356.78;;;16.70;45.23
33845;BME280;20145;43.118;25.694;2023-02-22T10:13:59;99356.31;;;16.61;44.79
33845;BME280;20145;43.118;25.694;2023-02-22T10:22:18;99341.75;;;16.79;44.65
33845;BME280;20145;43.118;25.694;2023-02-22T10:24:59;99348.69;;;16.80;44.80
33845;BME280;20145;43.118;25.694;2023-02-22T10:30:23;99333.34;;;17.16;44.14
33845;BME280;20145;43.118;25.694;2023-02-22T10:33:14;99334.25;;;17.15;44.74
33845;BME280;20145;43.118;25.694;2023-02-22T10:35:40;99330.25;;;17.06;45.02
33845;BME280;20145;43.118;25.694;2023-02-22T10:38:16;99322.00;;;16.95;44.01
33845;BME280;20145;43.118;25.694;2023-02-22T10:40:52;99316.31;;;17.07;43.92
33845;BME280;20145;43.118;25.694;2023-02-22T10:43:19;99316.97;;;17.12;43.74
33845;BME280;20145;43.118;25.694;2023-02-22T10:45:45;99313.25;;;17.18;43.62
33845;BME280;20145;43.118;25.694;2023-02-22T10:48:14;99312.78;;;17.30;44.43
33845;BME280;20145;43.118;25.694;2023-02-22T10:50:43;99304.63;;;17.38;43.15
33845;BME280;20145;43.118;25.694;2023-02-22T10:53:11;99309.97;;;17.35;44.00
33845;BME280;20145;43.118;25.694;2023-02-22T10:58:49;99297.38;;;17.45;43.30
33845;BME280;20145;43.118;25.694;2023-02-22T11:04:15;99297.34;;;17.46;42.86
33845;BME280;20145;43.118;25.694;2023-02-22T11:07:05;99286.81;;;17.48;43.11
33845;BME280;20145;43.118;25.694;2023-02-22T11:09:45;99295.13;;;17.57;42.49
33845;BME280;20145;43.118;25.694;2023-02-22T11:12:29;99279.00;;;17.48;42.20
33845;BME280;20145;43.118;25.694;2023-02-22T11:14:56;99296.41;;;17.68;42.57
33845;BME280;20145;43.118;25.694;2023-02-22T11:17:31;99293.22;;;17.81;41.54
33845;BME280;20145;43.118;25.694;2023-02-22T11:19:58;99289.31;;;17.71;40.90
33845;BME280;20145;43.118;25.694;2023-02-22T11:22:31;99299.63;;;17.74;42.01
33845;BME280;20145;43.118;25.694;2023-02-22T11:25:03;99283.78;;;17.79;42.07
33845;BME280;20145;43.118;25.694;2023-02-22T11:27:43;99287.03;;;17.84;42.06
33845;BME280;20145;43.118;25.694;2023-02-22T11:30:27;99282.59;;;17.86;41.16
33845;BME280;20145;43.118;25.694;2023-02-22T11:32:59;99284.00;;;17.73;40.66
33845;BME280;20145;43.118;25.694;2023-02-22T11:37:56;99283.13;;;17.74;41.48
33845;BME280;20145;43.118;25.694;2023-02-22T11:40:33;99287.88;;;17.84;41.25
33845;BME280;20145;43.118;25.694;2023-02-22T11:43:13;99283.38;;;17.88;41.17
33845;BME280;20145;43.118;25.694;2023-02-22T11:45:55;99276.03;;;17.76;40.76
33845;BME280;20145;43.118;25.694;2023-02-22T11:48:26;99278.66;;;17.76;40.88
33845;BME280;20145;43.118;25.694;2023-02-22T11:51:08;99279.53;;;17.76;41.11
33845;BME280;20145;43.118;25.694;2023-02-22T11:56:29;99279.72;;;17.51;41.77
33845;BME280;20145;43.118;25.694;2023-02-22T11:59:14;99276.91;;;17.56;42.08
33845;BME280;20145;43.118;25.694;2023-02-22T12:01:55;99271.56;;;17.59;41.99
33845;BME280;20145;43.118;25.694;2023-02-22T12:10:22;99282.75;;;17.83;41.66
33845;BME280;20145;43.118;25.694;2023-02-22T12:21:23;99263.84;;;17.97;42.23
33845;BME280;20145;43.118;25.694;2023-02-22T12:24:00;99267.31;;;17.97;41.29
33845;BME280;20145;43.118;25.694;2023-02-22T12:26:39;99265.56;;;17.77;42.25
33845;BME280;20145;43.118;25.694;2023-02-22T12:29:44;99259.63;;;17.74;41.95
33845;BME280;20145;43.118;25.694;2023-02-22T12:35:19;99237.31;;;17.87;42.59
33845;BME280;20145;43.118;25.694;2023-02-22T12:40:45;99265.03;;;17.90;41.74
33845;BME280;20145;43.118;25.694;2023-02-22T12:45:59;99246.56;;;17.94;41.89
33845;BME280;20145;43.118;25.694;2023-02-22T12:51:38;99250.00;;;17.95;42.12
33845;BME280;20145;43.118;25.694;2023-02-22T12:54:12;99238.94;;;17.90;42.42
33845;BME280;20145;43.118;25.694;2023-02-22T12:56:54;99239.16;;;18.04;42.77
33845;BME280;20145;43.118;25.694;2023-02-22T13:01:57;99237.66;;;17.98;42.27
33845;BME280;20145;43.118;25.694;2023-02-22T13:04:25;99244.75;;;17.96;41.95
33845;BME280;20145;43.118;25.694;2023-02-22T13:07:19;99227.38;;;17.95;42.39
33845;BME280;20145;43.118;25.694;2023-02-22T13:12:40;99239.16;;;18.04;42.44
33845;BME280;20145;43.118;25.694;2023-02-22T13:15:19;99235.34;;;18.11;42.32
33845;BME280;20145;43.118;25.694;2023-02-22T13:21:07;99230.28;;;18.27;41.69
33845;BME280;20145;43.118;25.694;2023-02-22T13:26:24;99232.59;;;18.14;42.79
33845;BME280;20145;43.118;25.694;2023-02-22T13:29:04;99237.81;;;18.14;42.51
33845;BME280;20145;43.118;25.694;2023-02-22T13:34:45;99233.44;;;18.15;42.37
33845;BME280;20145;43.118;25.694;2023-02-22T13:37:34;99230.63;;;18.19;42.08
33845;BME280;20145;43.118;25.694;2023-02-22T13:54:03;99239.22;;;18.02;43.38
33845;BME280;20145;43.118;25.694;2023-02-22T13:56:27;99225.88;;;17.90;43.00
33845;BME280;20145;43.118;25.694;2023-02-22T13:58:57;99235.28;;;17.94;42.98
33845;BME280;20145;43.118;25.694;2023-02-22T14:01:44;99235.97;;;17.97;43.67
33845;BME280;20145;43.118;25.694;2023-02-22T14:07:01;99235.97;;;17.97;43.14
33845;BME280;20145;43.118;25.694;2023-02-22T14:17:59;99243.41;;;17.88;44.06
33845;BME280;20145;43.118;25.694;2023-02-22T14:20:29;99253.34;;;17.78;44.03
33845;BME280;20145;43.118;25.694;2023-02-22T14:25:48;99249.25;;;17.72;44.12
33845;BME280;20145;43.118;25.694;2023-02-22T14:28:34;99252.19;;;17.85;44.25
33845;BME280;20145;43.118;25.694;2023-02-22T14:42:28;99247.88;;;17.64;45.05
33845;BME280;20145;43.118;25.694;2023-02-22T14:50:19;99247.56;;;17.51;45.49
33845;BME280;20145;43.118;25.694;2023-02-22T14:53:33;99240.09;;;17.43;45.69
33845;BME280;20145;43.118;25.694;2023-02-22T14:56:08;99241.91;;;17.41;45.97
33845;BME280;20145;43.118;25.694;2023-02-22T14:58:52;99239.47;;;17.36;45.70
33845;BME280;20145;43.118;25.694;2023-02-22T15:01:31;99233.69;;;17.30;46.76
33845;BME280;20145;43.118;25.694;2023-02-22T15:04:23;99246.25;;;17.20;45.91
33845;BME280;20145;43.118;25.694;2023-02-22T15:06:50;99243.78;;;17.17;46.48
33845;BME280;20145;43.118;25.694;2023-02-22T15:09:26;99236.03;;;17.15;46.80
33845;BME280;20145;43.118;25.694;2023-02-22T15:12:26;99240.47;;;17.13;46.59
33845;BME280;20145;43.118;25.694;2023-02-22T15:15:18;99249.25;;;17.11;47.42
33845;BME280;20145;43.118;25.694;2023-02-22T15:17:51;99241.69;;;17.05;46.64
33845;BME280;20145;43.118;25.694;2023-02-22T15:20:18;99248.53;;;17.07;45.90
33845;BME280;20145;43.118;25.694;2023-02-22T15:22:45;99242.72;;;17.01;47.46
33845;BME280;20145;43.118;25.694;2023-02-22T15:25:13;99240.63;;;16.88;47.07
33845;BME280;20145;43.118;25.694;2023-02-22T15:27:43;99236.63;;;16.80;47.27
33845;BME280;20145;43.118;25.694;2023-02-22T15:30:24;99230.97;;;16.68;47.69
33845;BME280;20145;43.118;25.694;2023-02-22T15:32:54;99242.28;;;16.67;47.77
33845;BME280;20145;43.118;25.694;2023-02-22T15:35:28;99250.59;;;16.55;47.57
33845;BME280;20145;43.118;25.694;2023-02-22T15:38:03;99244.97;;;16.44;48.32
33845;BME280;20145;43.118;25.694;2023-02-22T15:40:30;99247.50;;;16.45;49.23